createdAt,value
2019-02-27T00:00:43.940Z,2.10
2019-02-27T00:03:16.087Z,2.10
2019-02-27T00:05:47.864Z,2.00
2019-02-27T00:08:20.210Z,2.00
2019-02-27T00:10:51.978Z,2.00
2019-02-27T00:13:24.962Z,2.00
2019-02-27T00:15:57.319Z,2.00
2019-02-27T00:18:29.933Z,1.90
2019-02-27T00:21:01.744Z,1.90
2019-02-27T00:23:33.820Z,1.90
2019-02-27T00:26:08.733Z,1.80
2019-02-27T00:28:39.938Z,1.80
2019-02-27T00:31:12.090Z,1.70
2019-02-27T00:33:44.316Z,1.70
2019-02-27T00:36:16.022Z,1.60
2019-02-27T00:38:47.813Z,1.60
2019-02-27T00:41:19.525Z,1.50
2019-02-27T00:43:51.584Z,1.50
2019-02-27T00:46:24.439Z,1.50
2019-02-27T00:48:59.088Z,1.40
2019-02-27T00:51:32.457Z,1.40
2019-02-27T00:54:04.400Z,1.40
2019-02-27T00:56:36.080Z,1.30
2019-02-27T00:59:07.734Z,1.30
2019-02-27T01:01:39.511Z,1.30
2019-02-27T01:04:11.498Z,1.10
2019-02-27T01:06:45.013Z,1.10
2019-02-27T01:09:17.064Z,1.10
2019-02-27T01:11:51.814Z,1.10
2019-02-27T01:14:24.313Z,1.20
2019-02-27T01:16:56.015Z,1.10
2019-02-27T01:19:27.724Z,1.10
2019-02-27T01:21:59.982Z,1.10
2019-02-27T01:24:31.869Z,1.10
2019-02-27T01:27:04.608Z,1.00
2019-02-27T01:29:37.339Z,1.00
2019-02-27T01:32:09.069Z,0.90
2019-02-27T01:34:44.206Z,0.90
2019-02-27T01:37:14.632Z,0.80
2019-02-27T01:39:46.552Z,0.70
2019-02-27T01:42:18.370Z,0.70
2019-02-27T01:44:50.177Z,0.70
2019-02-27T01:47:22.882Z,0.70
2019-02-27T01:49:54.925Z,0.70
2019-02-27T01:52:26.509Z,0.60
2019-02-27T01:54:58.226Z,0.60
2019-02-27T01:57:29.946Z,0.60
2019-02-27T02:00:01.527Z,0.60
2019-02-27T02:02:34.930Z,0.60
2019-02-27T02:05:06.919Z,0.50
2019-02-27T02:07:40.296Z,0.50
2019-02-27T02:10:12.781Z,0.50
2019-02-27T02:12:44.703Z,0.50
2019-02-27T02:15:45.329Z,0.40
2019-02-27T02:18:54.076Z,0.40
2019-02-27T02:22:09.049Z,0.40
2019-02-27T02:25:43.259Z,0.30
2019-02-27T02:29:35.632Z,0.30
2019-02-27T02:32:38.651Z,0.30
2019-02-27T02:36:10.726Z,0.40
2019-02-27T02:39:23.993Z,0.30
2019-02-27T02:42:45.112Z,0.40
2019-02-27T02:45:36.566Z,0.40
2019-02-27T02:49:18.644Z,0.40
2019-02-27T02:52:27.206Z,0.40
2019-02-27T02:55:56.103Z,0.40
2019-02-27T02:59:14.408Z,0.40
2019-02-27T03:02:16.329Z,0.40
2019-02-27T03:06:02.982Z,0.50
2019-02-27T03:09:04.099Z,0.50
2019-02-27T03:12:30.990Z,0.40
2019-02-27T03:15:35.252Z,0.30
2019-02-27T03:19:06.265Z,0.20
2019-02-27T03:22:40.384Z,0.30
2019-02-27T03:25:53.287Z,0.20
2019-02-27T03:29:32.230Z,0.20
2019-02-27T03:32:53.215Z,0.10
2019-02-27T03:36:45.158Z,0.10
2019-02-27T03:39:59.295Z,0.10
2019-02-27T03:43:11.480Z,0.10
2019-02-27T03:46:47.785Z,0.10
2019-02-27T03:50:36.859Z,-0.10
2019-02-27T03:54:20.885Z,-0.20
2019-02-27T03:57:29.574Z,-0.40
2019-02-27T04:01:03.707Z,-0.50
2019-02-27T04:04:43.683Z,-0.50
2019-02-27T04:08:08.577Z,-0.50
2019-02-27T04:10:38.990Z,-0.40
2019-02-27T04:13:10.692Z,-0.20
2019-02-27T04:15:42.911Z,-0.20
2019-02-27T04:18:11.651Z,-0.10
2019-02-27T04:20:49.675Z,-0.10
2019-02-27T04:23:17.019Z,-0.10
2019-02-27T04:25:48.842Z,-0.10
2019-02-27T04:28:20.843Z,-0.10
2019-02-27T04:30:52.938Z,-0.20
2019-02-27T04:33:24.874Z,-0.30
2019-02-27T04:35:56.547Z,-0.30
2019-02-27T04:38:28.239Z,-0.30
2019-02-27T04:41:00.118Z,-0.30
2019-02-27T04:43:32.185Z,-0.30
2019-02-27T04:46:04.617Z,-0.30
2019-02-27T04:48:36.377Z,-0.30
2019-02-27T04:51:08.139Z,-0.20
2019-02-27T04:53:40.789Z,-0.20
2019-02-27T04:56:12.549Z,-0.20
2019-02-27T04:58:44.393Z,-0.20
2019-02-27T05:01:16.216Z,-0.10
2019-02-27T05:03:48.234Z,-0.10
2019-02-27T05:06:20.059Z,0.00
2019-02-27T05:08:51.737Z,-0.10
2019-02-27T05:11:23.530Z,-0.20
2019-02-27T05:13:55.297Z,-0.30
2019-02-27T05:16:26.926Z,-0.40
2019-02-27T05:19:03.609Z,-0.40
2019-02-27T05:21:32.125Z,-0.40
2019-02-27T05:24:05.198Z,-0.40
2019-02-27T05:26:37.408Z,-0.40
2019-02-27T05:29:09.325Z,-0.40
2019-02-27T05:31:41.108Z,-0.40
2019-02-27T05:34:13.563Z,-0.30
2019-02-27T05:37:05.266Z,-0.30
2019-02-27T05:39:37.877Z,-0.30
2019-02-27T05:42:09.694Z,-0.30
2019-02-27T05:44:41.313Z,-0.20
2019-02-27T05:47:13.152Z,-0.20
2019-02-27T05:49:45.290Z,-0.20
2019-02-27T05:52:17.137Z,-0.30
2019-02-27T05:54:49.139Z,-0.30
2019-02-27T05:57:22.944Z,-0.30
2019-02-27T05:59:54.532Z,-0.30
2019-02-27T06:02:26.207Z,-0.30
2019-02-27T06:04:59.063Z,-0.30
2019-02-27T06:07:31.707Z,-0.30
2019-02-27T06:10:03.506Z,-0.20
2019-02-27T06:12:38.142Z,-0.20
2019-02-27T06:15:12.595Z,-0.10
2019-02-27T06:17:48.848Z,0.00
2019-02-27T06:20:18.563Z,0.10
2019-02-27T06:22:50.601Z,0.30
2019-02-27T06:25:23.912Z,0.40
2019-02-27T06:27:56.116Z,0.50
2019-02-27T06:30:30.773Z,0.70
2019-02-27T06:33:02.320Z,0.80
2019-02-27T06:35:34.387Z,1.00
2019-02-27T06:38:06.297Z,1.20
2019-02-27T06:40:42.109Z,1.30
2019-02-27T06:43:30.350Z,1.40
2019-02-27T06:46:02.472Z,1.50
2019-02-27T06:48:34.468Z,1.60
2019-02-27T06:51:06.173Z,1.70
2019-02-27T06:53:38.112Z,1.60
2019-02-27T06:56:10.026Z,1.50
2019-02-27T06:58:42.009Z,1.50
2019-02-27T07:01:15.204Z,1.50
2019-02-27T07:03:47.107Z,1.60
2019-02-27T07:06:21.362Z,1.80
2019-02-27T07:08:52.453Z,2.00
2019-02-27T07:11:24.461Z,2.10
2019-02-27T07:13:57.746Z,2.40
2019-02-27T07:16:29.745Z,2.60
2019-02-27T07:19:01.867Z,2.90
2019-02-27T07:21:33.890Z,3.60
2019-02-27T07:24:05.758Z,4.10
2019-02-27T07:26:38.249Z,4.30
2019-02-27T07:29:10.218Z,4.70
2019-02-27T07:31:42.631Z,4.50
2019-02-27T07:34:14.958Z,4.60
2019-02-27T07:36:47.476Z,4.90
2019-02-27T07:39:19.472Z,5.10
2019-02-27T07:41:51.861Z,5.10
2019-02-27T07:44:23.976Z,5.20
2019-02-27T07:46:57.570Z,5.60
2019-02-27T07:49:30.969Z,5.90
2019-02-27T07:52:03.178Z,6.20
2019-02-27T07:54:35.013Z,6.60
2019-02-27T07:57:07.495Z,7.10
2019-02-27T07:59:39.354Z,7.70
2019-02-27T08:02:11.528Z,8.20
2019-02-27T08:04:43.517Z,8.20
2019-02-27T08:07:15.302Z,8.40
2019-02-27T08:09:47.159Z,8.40
2019-02-27T08:12:19.969Z,8.60
2019-02-27T08:14:52.356Z,8.90
2019-02-27T08:17:24.127Z,9.10
2019-02-27T08:19:55.986Z,9.30
2019-02-27T08:22:27.592Z,9.60
2019-02-27T08:24:59.291Z,9.70
2019-02-27T08:27:31.023Z,10.00
2019-02-27T08:30:02.660Z,10.70
2019-02-27T08:32:35.239Z,10.80
2019-02-27T08:35:07.928Z,11.00
2019-02-27T08:37:39.564Z,11.30
2019-02-27T08:40:11.299Z,11.50
2019-02-27T08:42:43.405Z,11.80
2019-02-27T08:45:19.674Z,12.10
2019-02-27T08:47:50.436Z,12.40
2019-02-27T08:50:23.674Z,12.80
2019-02-27T08:52:55.421Z,12.90
2019-02-27T08:55:27.164Z,13.20
2019-02-27T08:57:58.935Z,13.30
2019-02-27T09:00:31.230Z,13.80
2019-02-27T09:03:03.731Z,14.10
2019-02-27T09:05:35.626Z,14.20
2019-02-27T09:08:10.800Z,14.50
2019-02-27T09:10:42.896Z,15.10
2019-02-27T09:13:14.544Z,15.70
2019-02-27T09:15:46.451Z,15.90
2019-02-27T09:18:18.382Z,16.60
2019-02-27T09:20:53.098Z,16.80
2019-02-27T09:23:23.868Z,17.00
2019-02-27T09:25:57.479Z,17.10
2019-02-27T09:28:29.387Z,17.30
2019-02-27T09:31:04.188Z,18.00
2019-02-27T09:33:38.728Z,18.40
2019-02-27T09:36:10.354Z,18.70
2019-02-27T09:38:41.793Z,19.10
2019-02-27T09:41:14.399Z,19.80
2019-02-27T09:43:46.140Z,20.50
2019-02-27T09:46:19.486Z,21.10
2019-02-27T09:48:51.875Z,21.40
2019-02-27T09:51:23.605Z,21.70
2019-02-27T09:53:55.427Z,22.10
2019-02-27T09:56:29.210Z,22.60
2019-02-27T09:59:01.244Z,22.70
2019-02-27T10:01:35.169Z,23.00
2019-02-27T10:04:06.426Z,23.30
2019-02-27T10:06:40.467Z,23.60
2019-02-27T10:09:17.732Z,23.70
2019-02-27T10:11:52.190Z,24.00
2019-02-27T10:14:22.758Z,24.30
2019-02-27T10:16:54.433Z,24.30
2019-02-27T10:19:27.642Z,24.50
2019-02-27T10:21:59.622Z,24.70
2019-02-27T10:24:32.336Z,24.80
2019-02-27T10:27:04.214Z,25.20
2019-02-27T10:29:35.976Z,25.50
2019-02-27T10:32:07.672Z,26.00
2019-02-27T10:34:39.373Z,26.20
2019-02-27T10:37:13.286Z,26.30
2019-02-27T10:39:44.951Z,26.50
2019-02-27T10:42:17.038Z,26.50
2019-02-27T10:44:48.716Z,27.00
2019-02-27T10:47:21.324Z,27.00
2019-02-27T10:49:53.204Z,27.00
2019-02-27T10:52:25.876Z,27.10
2019-02-27T10:54:57.476Z,26.30
2019-02-27T10:57:31.927Z,26.30
2019-02-27T11:00:03.211Z,26.00
2019-02-27T11:02:35.323Z,26.00
2019-02-27T11:05:07.508Z,26.00
2019-02-27T11:07:39.848Z,26.50
2019-02-27T11:10:12.058Z,26.60
2019-02-27T11:12:44.074Z,26.50
2019-02-27T11:15:17.524Z,26.30
2019-02-27T11:17:49.509Z,25.90
2019-02-27T11:20:22.139Z,25.90
2019-02-27T11:22:55.054Z,26.20
2019-02-27T11:25:27.217Z,26.10
2019-02-27T11:27:59.324Z,26.60
2019-02-27T11:30:36.732Z,26.80
2019-02-27T11:33:08.083Z,27.10
2019-02-27T11:35:40.087Z,27.30
2019-02-27T11:38:11.831Z,27.30
2019-02-27T11:40:43.665Z,27.20
2019-02-27T11:43:17.197Z,27.10
2019-02-27T11:45:48.743Z,27.20
2019-02-27T11:48:22.879Z,26.50
2019-02-27T11:50:54.297Z,26.80
2019-02-27T11:53:26.536Z,26.50
2019-02-27T11:55:58.491Z,26.50
2019-02-27T11:58:30.604Z,27.00
2019-02-27T12:01:04.380Z,27.00
2019-02-27T12:03:36.159Z,27.30
2019-02-27T12:06:08.502Z,27.50
2019-02-27T12:08:40.661Z,27.20
2019-02-27T12:11:14.102Z,26.90
2019-02-27T12:13:46.743Z,26.30
2019-02-27T12:16:18.673Z,26.30
2019-02-27T12:18:50.700Z,26.60
2019-02-27T12:21:22.360Z,26.70
2019-02-27T12:23:54.577Z,26.70
2019-02-27T12:26:26.815Z,26.00
2019-02-27T12:28:58.847Z,26.20
2019-02-27T12:31:31.664Z,26.70
2019-02-27T12:34:03.458Z,27.20
2019-02-27T12:36:35.201Z,27.60
2019-02-27T12:39:09.555Z,28.00
2019-02-27T12:41:41.362Z,27.60
2019-02-27T12:44:13.329Z,27.40
2019-02-27T12:46:45.281Z,26.80
2019-02-27T12:49:20.157Z,25.90
2019-02-27T12:51:52.509Z,26.40
2019-02-27T12:54:26.852Z,26.80
2019-02-27T12:56:58.004Z,27.10
2019-02-27T12:59:30.773Z,26.90
2019-02-27T13:02:08.357Z,26.60
2019-02-27T13:04:37.404Z,26.40
2019-02-27T13:07:11.234Z,26.80
2019-02-27T13:09:43.623Z,26.60
2019-02-27T13:12:17.307Z,26.90
2019-02-27T13:14:49.422Z,27.10
2019-02-27T13:17:22.222Z,26.80
2019-02-27T13:19:54.070Z,26.20
2019-02-27T13:22:29.211Z,26.70
2019-02-27T13:25:00.335Z,27.10
2019-02-27T13:27:32.415Z,27.40
2019-02-27T13:30:08.589Z,27.70
2019-02-27T13:32:38.187Z,27.30
2019-02-27T13:35:10.598Z,26.90
2019-02-27T13:37:44.747Z,26.40
2019-02-27T13:40:19.048Z,26.20
2019-02-27T13:42:53.325Z,25.90
2019-02-27T13:45:26.933Z,26.10
2019-02-27T13:47:59.225Z,26.30
2019-02-27T13:50:33.289Z,25.90
2019-02-27T13:53:05.236Z,26.10
2019-02-27T13:55:37.077Z,26.30
2019-02-27T13:58:09.308Z,26.10
2019-02-27T14:00:42.841Z,26.00
2019-02-27T14:03:18.811Z,26.10
2019-02-27T14:05:51.129Z,25.90
2019-02-27T14:08:29.047Z,25.70
2019-02-27T14:11:00.777Z,25.30
2019-02-27T14:13:34.064Z,25.30
2019-02-27T14:16:06.657Z,25.50
2019-02-27T14:18:40.247Z,25.60
2019-02-27T14:21:12.452Z,25.60
2019-02-27T14:23:46.807Z,25.90
2019-02-27T14:26:18.333Z,25.20
2019-02-27T14:28:52.244Z,25.50
2019-02-27T14:31:25.079Z,25.20
2019-02-27T14:33:57.246Z,25.30
2019-02-27T14:36:29.433Z,25.60
2019-02-27T14:39:01.563Z,25.60
2019-02-27T14:41:34.185Z,24.90
2019-02-27T14:44:06.860Z,25.00
2019-02-27T14:46:39.067Z,24.20
2019-02-27T14:49:11.020Z,23.50
2019-02-27T14:51:43.345Z,23.80
2019-02-27T14:54:15.348Z,24.40
2019-02-27T14:56:49.520Z,24.40
2019-02-27T14:59:21.609Z,24.10
2019-02-27T15:01:55.215Z,23.90
2019-02-27T15:04:27.658Z,24.00
2019-02-27T15:07:02.195Z,24.10
2019-02-27T15:09:36.387Z,24.50
2019-02-27T15:12:09.193Z,24.30
2019-02-27T15:14:41.307Z,24.20
2019-02-27T15:17:12.964Z,23.90
2019-02-27T15:19:45.280Z,23.80
2019-02-27T15:22:20.147Z,23.40
2019-02-27T15:24:50.581Z,23.20
2019-02-27T15:27:25.105Z,22.90
2019-02-27T15:29:56.687Z,22.50
2019-02-27T15:32:29.392Z,22.10
2019-02-27T15:35:02.210Z,21.80
2019-02-27T15:37:37.199Z,21.80
2019-02-27T15:40:08.696Z,21.60
2019-02-27T15:42:42.695Z,21.80
2019-02-27T15:45:16.079Z,21.90
2019-02-27T15:47:48.089Z,22.00
2019-02-27T15:50:23.431Z,22.00
2019-02-27T15:52:55.335Z,21.80
2019-02-27T15:55:33.384Z,21.30
2019-02-27T15:58:03.864Z,21.30
2019-02-27T16:00:36.528Z,21.10
2019-02-27T16:03:11.819Z,20.60
2019-02-27T16:05:43.484Z,20.30
2019-02-27T16:08:15.454Z,20.30
2019-02-27T16:10:54.589Z,20.20
2019-02-27T16:13:21.485Z,19.80
2019-02-27T16:15:53.869Z,19.70
2019-02-27T16:18:26.200Z,19.50
2019-02-27T16:21:00.678Z,19.60
2019-02-27T16:23:37.207Z,19.70
2019-02-27T16:26:07.637Z,19.40
2019-02-27T16:28:41.367Z,19.30
2019-02-27T16:31:14.207Z,19.30
2019-02-27T16:33:45.935Z,19.20
2019-02-27T16:36:18.351Z,19.10
2019-02-27T16:38:50.282Z,19.20
2019-02-27T16:41:27.897Z,19.00
2019-02-27T16:43:56.310Z,18.70
2019-02-27T16:46:29.147Z,18.50
2019-02-27T16:49:00.918Z,18.20
2019-02-27T16:51:34.677Z,17.90
2019-02-27T16:54:06.387Z,17.60
2019-02-27T16:56:38.582Z,17.30
2019-02-27T16:59:12.125Z,17.10
2019-02-27T17:01:44.369Z,16.90
2019-02-27T17:04:16.104Z,16.80
2019-02-27T17:06:49.152Z,16.70
2019-02-27T17:09:21.147Z,16.60
2019-02-27T17:11:54.107Z,16.40
2019-02-27T17:14:26.644Z,16.30
2019-02-27T17:16:59.185Z,16.10
2019-02-27T17:19:33.072Z,15.80
2019-02-27T17:22:05.350Z,15.50
2019-02-27T17:24:37.261Z,15.30
2019-02-27T17:27:12.563Z,15.00
2019-02-27T17:29:43.005Z,14.70
2019-02-27T17:32:15.792Z,14.60
2019-02-27T17:34:48.246Z,14.50
2019-02-27T17:37:20.200Z,14.40
2019-02-27T17:39:51.973Z,14.20
2019-02-27T17:42:23.620Z,13.90
2019-02-27T17:44:55.341Z,13.80
2019-02-27T17:47:29.375Z,13.60
2019-02-27T17:50:01.834Z,13.40
2019-02-27T17:52:36.318Z,13.20
2019-02-27T17:55:09.271Z,13.00
2019-02-27T17:57:41.307Z,12.80
2019-02-27T18:00:19.182Z,12.60
2019-02-27T18:02:51.290Z,12.50
2019-02-27T18:05:25.337Z,12.40
2019-02-27T18:07:57.548Z,12.20
2019-02-27T18:10:29.744Z,12.30
2019-02-27T18:13:02.117Z,12.30
2019-02-27T18:15:34.713Z,12.40
2019-02-27T18:18:09.121Z,12.60
2019-02-27T18:20:40.483Z,12.80
2019-02-27T18:23:12.322Z,13.00
2019-02-27T18:25:45.360Z,13.10
2019-02-27T18:28:18.416Z,13.20
2019-02-27T18:30:53.189Z,13.20
2019-02-27T18:33:25.515Z,13.10
2019-02-27T18:36:04.324Z,13.10
2019-02-27T18:38:33.081Z,12.90
2019-02-27T18:41:06.306Z,12.80
2019-02-27T18:43:38.317Z,12.70
2019-02-27T18:46:12.290Z,12.80
2019-02-27T18:48:45.498Z,12.70
2019-02-27T18:51:19.916Z,12.60
2019-02-27T18:53:52.331Z,12.50
2019-02-27T18:56:25.611Z,12.40
2019-02-27T18:58:57.581Z,12.30
2019-02-27T19:01:30.483Z,12.10
2019-02-27T19:04:02.459Z,12.00
2019-02-27T19:06:36.254Z,11.90
2019-02-27T19:09:09.484Z,11.80
2019-02-27T19:11:43.144Z,11.70
2019-02-27T19:14:15.573Z,11.60
2019-02-27T19:16:48.947Z,11.60
2019-02-27T19:19:20.847Z,11.70
2019-02-27T19:21:52.912Z,11.50
2019-02-27T19:24:27.536Z,11.40
2019-02-27T19:26:59.097Z,11.40
2019-02-27T19:29:31.898Z,11.40
2019-02-27T19:32:06.782Z,11.00
2019-02-27T19:34:41.539Z,10.70
2019-02-27T19:37:12.798Z,10.40
2019-02-27T19:39:45.007Z,10.10
2019-02-27T19:42:17.622Z,9.60
2019-02-27T19:44:50.725Z,9.30
2019-02-27T19:47:23.998Z,9.10
2019-02-27T19:49:57.173Z,9.00
2019-02-27T19:52:29.957Z,9.00
2019-02-27T19:55:03.080Z,9.00
2019-02-27T19:57:39.367Z,8.80
2019-02-27T20:00:12.879Z,8.70
2019-02-27T20:02:46.012Z,8.60
2019-02-27T20:05:19.818Z,8.50
2019-02-27T20:07:53.215Z,8.50
2019-02-27T20:10:30.190Z,8.60
2019-02-27T20:13:02.250Z,8.50
2019-02-27T20:15:35.790Z,8.30
2019-02-27T20:18:09.663Z,8.30
2019-02-27T20:20:43.635Z,8.80
2019-02-27T20:23:17.382Z,8.60
2019-02-27T20:25:50.580Z,8.40
2019-02-27T20:28:24.561Z,8.30
2019-02-27T20:30:57.589Z,8.20
2019-02-27T20:33:34.287Z,8.10
2019-02-27T20:36:07.665Z,8.00
2019-02-27T20:38:41.979Z,7.80
2019-02-27T20:41:15.469Z,7.50
2019-02-27T20:43:49.158Z,7.40
2019-02-27T20:46:24.574Z,7.20
2019-02-27T20:48:57.491Z,7.00
2019-02-27T20:51:30.565Z,7.00
2019-02-27T20:54:03.828Z,7.00
2019-02-27T20:56:37.080Z,7.20
2019-02-27T20:59:11.165Z,7.10
2019-02-27T21:01:47.302Z,6.90
2019-02-27T21:04:19.195Z,6.70
2019-02-27T21:06:52.559Z,6.50
2019-02-27T21:09:24.995Z,6.40
2019-02-27T21:11:57.538Z,6.30
2019-02-27T21:14:29.998Z,6.30
2019-02-27T21:17:04.207Z,6.40
2019-02-27T21:19:37.222Z,6.90
2019-02-27T21:22:10.882Z,7.50
2019-02-27T21:24:43.817Z,7.20
2019-02-27T21:27:16.602Z,6.80
2019-02-27T21:29:53.010Z,6.50
2019-02-27T21:32:26.446Z,6.20
2019-02-27T21:34:58.741Z,6.20
2019-02-27T21:37:31.602Z,6.10
2019-02-27T21:40:03.820Z,6.10
2019-02-27T21:42:37.263Z,6.00
2019-02-27T21:45:12.587Z,5.80
2019-02-27T21:47:44.600Z,5.60
2019-02-27T21:50:18.110Z,5.30
2019-02-27T21:52:54.364Z,5.00
2019-02-27T21:55:25.177Z,4.90
2019-02-27T21:57:58.009Z,4.70
2019-02-27T22:00:31.751Z,4.50
2019-02-27T22:03:05.147Z,4.40
2019-02-27T22:05:42.709Z,4.40
2019-02-27T22:08:11.163Z,4.50
2019-02-27T22:10:43.006Z,4.50
2019-02-27T22:13:14.931Z,4.60
2019-02-27T22:15:47.669Z,4.60
2019-02-27T22:18:19.523Z,4.70
2019-02-27T22:20:51.506Z,4.80
2019-02-27T22:23:23.255Z,4.70
2019-02-27T22:25:55.895Z,4.50
2019-02-27T22:28:28.824Z,4.40
2019-02-27T22:31:06.031Z,4.20
2019-02-27T22:33:34.782Z,4.10
2019-02-27T22:36:12.334Z,4.00
2019-02-27T22:38:40.717Z,4.00
2019-02-27T22:41:12.818Z,4.00
2019-02-27T22:43:44.549Z,3.90
2019-02-27T22:46:17.084Z,3.90
2019-02-27T22:48:49.066Z,3.90
2019-02-27T22:51:21.005Z,3.90
2019-02-27T22:53:53.291Z,3.80
2019-02-27T22:56:25.412Z,3.60
2019-02-27T22:58:59.400Z,3.60
2019-02-27T23:01:49.339Z,3.50
2019-02-27T23:04:19.662Z,3.50
2019-02-27T23:06:51.482Z,3.40
2019-02-27T23:09:25.646Z,3.30
2019-02-27T23:11:57.002Z,3.20
2019-02-27T23:14:28.905Z,3.20
2019-02-27T23:17:01.330Z,3.10
2019-02-27T23:19:33.378Z,3.00
2019-02-27T23:22:05.409Z,3.00
2019-02-27T23:24:37.163Z,3.00
2019-02-27T23:27:08.866Z,2.90
2019-02-27T23:29:40.644Z,2.80
2019-02-27T23:32:12.190Z,2.80
2019-02-27T23:34:43.862Z,2.70
2019-02-27T23:37:16.161Z,2.70
2019-02-27T23:39:48.175Z,2.70
2019-02-27T23:42:19.900Z,2.60
2019-02-27T23:44:51.728Z,2.50
2019-02-27T23:47:28.684Z,2.50
2019-02-27T23:49:59.399Z,2.30
2019-02-27T23:52:31.141Z,2.20
2019-02-27T23:55:02.976Z,2.10
2019-02-27T23:57:34.819Z,2.00
